Disclaimer

Please do not use the information listed here in-flight or in-navigation, as they are not provided to us by the airports but are provided by volunteers, so they might be outdated.

Search


Regions


Airport information page

Radio informations:
BALDONNEL TWR - 123.5 MHz
BALDONNEL GND - 123.1 MHz
AREA - 122.8 MHz
BALDONNEL APP - 122.0 MHz

Airport informations:
Latitude: 53° 18' 06.00" N
Longitude: 006° 27' 04.80" W
Elevation: 319 feet - 97 meters
Operating hours: Remarks
Operating agency: Military
Timezone: UTC 0(+1DT) - Last Sunday in March to last Sunday in October
Fuel: Jet A1, without icing nhibitor.

100/130 MIL Spec, low lead, aviation gasoline (BLUE)

Runway information:
05/23 - 4800 x 150 feet< - >1463 x 46 meters
11/29 - 6001 x 150 feet< - >1829 x 46 meters

Recent METARs:
EIME 151700Z 17013KT 110V200 9999 FEW015 BKN024 10/06 Q0982
EIME 151800Z 23007KT 9999 -RADZ SCT015 BKN022 09/07 Q0981
EIME 151800Z 23007KT 9999 -RADZ SCT015 BKN022 09/07 Q0981

Airport on the map: